PANC/ANC METAR and TAF weather

Enter ICAO airport designator
Station Type Date Time Source
PANC METAR 2022/11/30 09:53 UTC NOAA

PANC 300953Z 09005KT 10SM FEW005 M14/M17 A3053 RMK AO2 SLP342 T11441172


Station Type Date Time Source
PANC Decoded METAR 2022/11/30 09:53 UTC NOAA

TED STEVENS ANCHORAGE INTERNATIONAL , AK, United States (PANC) 61-10N 150-02W 48M
Nov 30, 2022 - 04:53 AM EST / 2022.11.30 0953 UTC
Wind: from the E (090 degrees) at 6 MPH (5 KT):0
Visibility: 10 mile(s):0
Sky conditions: mostly clear
Temperature: 6.1 F (-14.4 C)
Windchill: -4 F (-20 C):1
Dew Point: 1.0 F (-17.2 C)
Relative Humidity: 79%
Pressure (altimeter): 30.53 in. Hg (1033 hPa)
ob: PANC 300953Z 09005KT 10SM FEW005 M14/M17 A3053 RMK AO2 SLP342 T11441172
cycle: 10

Station Type Date Time Source
PANC TAF 2022/11/30 06:33 UTC NOAA

TAF PANC 300531Z 3006/0112 VRB04KT P6SM SKC
FM010300 01007KT 6SM -SN SCT025 OVC050

Example: see airport list